Time;durP1;ratioP1;P1;durP2;ratioP2;P2;SDS_P1;SDS_P2;PMS_P1;PMS_P2;Temp;Humidity;BMP_temperature;BMP_pressure;BME280_temperature;BME280_humidity;BME280_pressure;Samples;Min_cycle;Max_cycle;Signal;HPM_P1;HPM_P2
2022/08/03 00:01:00;;;;;;;4.30;2.30;;;19.30;93.50;;;;;;5009664;28;20443;-67
2022/08/03 00:03:28;;;;;;;3.20;2.60;;;19.30;93.30;;;;;;5013169;28;20529;-66
2022/08/03 00:05:55;;;;;;;4.70;2.60;;;19.20;93.30;;;;;;4996883;28;21025;-66
2022/08/03 00:08:22;;;;;;;7.87;2.30;;;19.10;93.40;;;;;;4992782;28;20502;-66
2022/08/03 00:10:49;;;;;;;4.50;2.37;;;19.10;93.50;;;;;;5006234;28;20539;-67
2022/08/03 00:13:18;;;;;;;3.63;1.90;;;19.10;93.40;;;;;;5012749;28;20442;-65
2022/08/03 00:15:45;;;;;;;2.70;1.87;;;19.00;93.40;;;;;;4999194;28;20536;-65
2022/08/03 00:18:12;;;;;;;3.10;2.00;;;18.90;93.70;;;;;;4992954;28;20459;-66
2022/08/03 00:20:40;;;;;;;4.30;2.07;;;18.90;93.70;;;;;;5003610;28;20448;-66
2022/08/03 00:23:07;;;;;;;2.90;1.80;;;18.90;93.90;;;;;;5012695;28;20490;-66
2022/08/03 00:25:34;;;;;;;4.90;2.10;;;18.80;93.90;;;;;;5001899;28;20440;-66
2022/08/03 00:28:02;;;;;;;4.87;2.30;;;18.90;94.00;;;;;;4992868;28;20440;-66
2022/08/03 00:30:32;;;;;;;3.53;2.30;;;18.90;94.00;;;;;;5001481;28;20440;-66
2022/08/03 00:33:02;;;;;;;3.03;2.10;;;18.90;93.90;;;;;;5012125;28;20444;-66
2022/08/03 00:35:29;;;;;;;4.90;3.00;;;18.90;93.70;;;;;;5003902;28;20444;-66
2022/08/03 00:37:57;;;;;;;5.83;2.07;;;18.90;93.60;;;;;;4992927;28;20799;-66
2022/08/03 00:40:24;;;;;;;2.80;1.90;;;18.90;93.70;;;;;;4998658;28;20447;-66
2022/08/03 00:42:58;;;;;;;4.53;2.83;;;18.80;94.20;;;;;;5012636;28;20859;-66
2022/08/03 00:45:27;;;;;;;3.23;2.40;;;18.60;93.80;;;;;;5005513;28;20823;-68
2022/08/03 00:47:56;;;;;;;4.00;2.07;;;18.60;94.00;;;;;;4992567;28;20464;-66
2022/08/03 00:50:25;;;;;;;3.50;2.20;;;18.50;94.40;;;;;;4997246;28;20460;-67
2022/08/03 00:52:54;;;;;;;5.23;1.97;;;18.40;94.70;;;;;;5012603;28;20438;-66
2022/08/03 00:55:21;;;;;;;3.70;1.97;;;18.40;94.80;;;;;;5007000;28;20426;-66
2022/08/03 00:57:49;;;;;;;6.00;2.80;;;18.40;95.10;;;;;;4992558;28;20491;-67
2022/08/03 01:00:19;;;;;;;5.27;2.30;;;18.40;95.20;;;;;;5009175;28;20865;-66
2022/08/03 01:02:47;;;;;;;3.83;2.20;;;18.40;95.10;;;;;;5012135;28;20454;-65
2022/08/03 01:05:15;;;;;;;6.63;3.23;;;18.40;95.10;;;;;;4998887;28;20447;-66
2022/08/03 01:07:53;;;;;;;3.33;2.47;;;18.40;94.90;;;;;;5012120;28;20438;-66
2022/08/03 01:10:29;;;;;;;4.10;2.07;;;18.40;95.20;;;;;;4995174;28;20444;-66
2022/08/03 01:13:03;;;;;;;5.93;2.20;;;18.40;95.30;;;;;;4992724;28;20457;-66
2022/08/03 01:15:39;;;;;;;3.50;1.90;;;18.30;95.20;;;;;;5007340;28;20431;-66
2022/08/03 01:18:12;;;;;;;7.53;2.30;;;18.40;95.10;;;;;;5012154;28;20493;-66
2022/08/03 01:20:44;;;;;;;6.67;1.90;;;18.30;95.00;;;;;;4993640;28;20506;-66
2022/08/03 01:23:31;;;;;;;2.80;1.70;;;18.30;94.70;;;;;;4995172;28;20454;-66
2022/08/03 01:26:21;;;;;;;4.33;2.77;;;18.30;94.80;;;;;;4996615;28;20439;-66
2022/08/03 01:29:19;;;;;;;2.90;1.80;;;18.20;94.90;;;;;;4996463;28;20448;-66
2022/08/03 01:31:53;;;;;;;3.03;1.70;;;18.10;95.20;;;;;;4996056;28;20439;-66
2022/08/03 01:34:22;;;;;;;7.57;2.40;;;18.00;95.40;;;;;;4996350;28;20471;-66
2022/08/03 01:36:53;;;;;;;3.80;2.07;;;18.00;95.40;;;;;;5006220;28;20482;-66
2022/08/03 01:39:22;;;;;;;4.37;1.73;;;17.90;95.40;;;;;;5015615;28;20470;-66
2022/08/03 01:41:58;;;;;;;2.90;2.13;;;17.90;95.60;;;;;;5005049;28;20443;-66
2022/08/03 01:44:29;;;;;;;3.20;2.03;;;17.90;95.70;;;;;;4995838;28;20438;-65
2022/08/03 01:47:00;;;;;;;3.67;2.20;;;17.80;95.60;;;;;;5002241;28;20489;-66
2022/08/03 01:49:28;;;;;;;5.70;2.37;;;17.70;95.70;;;;;;5014766;28;20521;-66
2022/08/03 01:51:57;;;;;;;3.93;2.70;;;17.60;96.20;;;;;;5014966;28;20442;-68
2022/08/03 01:54:25;;;;;;;3.93;2.47;;;17.60;96.70;;;;;;5014766;28;20940;-66
2022/08/03 01:56:54;;;;;;;4.57;3.17;;;17.50;96.80;;;;;;5004184;28;20482;-68
2022/08/03 01:59:23;;;;;;;3.27;2.47;;;17.40;96.90;;;;;;4995850;28;20435;-66
2022/08/03 02:01:51;;;;;;;7.70;2.97;;;17.50;97.20;;;;;;5004453;28;20814;-66
2022/08/03 02:04:20;;;;;;;3.37;2.43;;;17.50;97.30;;;;;;5013436;28;20830;-66
2022/08/03 02:06:49;;;;;;;3.63;1.80;;;17.50;97.10;;;;;;4995772;28;20446;-66
2022/08/03 02:09:20;;;;;;;3.13;2.20;;;17.50;97.10;;;;;;4994925;28;20506;-67
2022/08/03 02:11:48;;;;;;;3.43;2.50;;;17.50;96.90;;;;;;5014873;28;20881;-66
2022/08/03 02:14:16;;;;;;;2.93;2.00;;;17.50;96.80;;;;;;5014960;28;20439;-66
2022/08/03 02:16:44;;;;;;;2.70;1.50;;;17.50;96.80;;;;;;4995597;28;20483;-66
2022/08/03 02:19:12;;;;;;;3.70;2.00;;;17.60;96.80;;;;;;4995355;28;20439;-66
2022/08/03 02:21:43;;;;;;;3.00;1.80;;;17.50;96.30;;;;;;5012965;28;20937;-66
2022/08/03 02:24:11;;;;;;;2.90;2.10;;;17.50;96.50;;;;;;5014919;28;20488;-66
2022/08/03 02:26:41;;;;;;;3.30;2.23;;;17.50;96.90;;;;;;4996616;28;20448;-66
2022/08/03 02:29:13;;;;;;;6.10;1.70;;;17.50;97.10;;;;;;4995017;28;20440;-66
2022/08/03 02:31:43;;;;;;;3.47;1.60;;;17.50;97.20;;;;;;4997815;28;20498;-65
2022/08/03 02:34:15;;;;;;;3.87;2.00;;;17.50;97.10;;;;;;4994798;28;20804;-66
2022/08/03 02:36:49;;;;;;;4.87;2.10;;;17.40;97.20;;;;;;5011471;28;20517;-66
2022/08/03 02:39:20;;;;;;;3.63;2.40;;;17.30;97.10;;;;;;5014530;28;20443;-65
2022/08/03 02:41:50;;;;;;;3.27;2.23;;;17.30;97.30;;;;;;4996623;28;20479;-67
2022/08/03 02:44:23;;;;;;;2.63;1.63;;;17.30;97.20;;;;;;4994776;28;20440;-66
2022/08/03 02:46:55;;;;;;;3.30;2.20;;;17.30;97.10;;;;;;5011642;28;20541;-66
2022/08/03 02:49:24;;;;;;;3.20;2.20;;;17.30;97.20;;;;;;5014453;28;20443;-66
2022/08/03 02:51:54;;;;;;;2.83;1.80;;;17.30;96.90;;;;;;4996730;28;20490;-65
2022/08/03 02:54:25;;;;;;;3.10;1.80;;;17.30;96.60;;;;;;4994740;28;20435;-66
2022/08/03 02:56:54;;;;;;;3.83;1.60;;;17.30;96.50;;;;;;5009859;28;20482;-66
2022/08/03 02:59:22;;;;;;;2.53;1.43;;;17.30;96.30;;;;;;5014162;28;20529;-65
2022/08/03 03:01:49;;;;;;;6.40;1.53;;;17.20;96.00;;;;;;4997918;28;20440;-66
2022/08/03 03:04:18;;;;;;;3.60;2.00;;;17.10;95.80;;;;;;5002234;28;20892;-66
2022/08/03 03:06:45;;;;;;;4.87;2.37;;;17.10;96.10;;;;;;5013820;28;20446;-66
2022/08/03 03:09:14;;;;;;;3.80;3.17;;;17.00;96.30;;;;;;5006329;28;20541;-66
2022/08/03 03:11:44;;;;;;;3.50;2.17;;;17.00;96.30;;;;;;5005009;28;20443;-66
2022/08/03 03:14:13;;;;;;;2.50;1.70;;;16.90;96.50;;;;;;5007017;28;20435;-66
2022/08/03 03:16:41;;;;;;;3.10;2.30;;;16.70;97.70;;;;;;4993861;28;20439;-66
2022/08/03 03:19:11;;;;;;;3.27;2.23;;;16.70;98.20;;;;;;4998525;28;20445;-65
2022/08/03 03:21:38;;;;;;;3.73;2.07;;;16.60;99.20;;;;;;5003473;28;20502;-66
2022/08/03 03:24:08;;;;;;;4.33;2.20;;;16.50;99.90;;;;;;4997637;28;20446;-65
2022/08/03 03:26:37;;;;;;;5.73;2.40;;;16.40;95.40;;;;;;5013542;28;20446;-66
2022/08/03 03:29:04;;;;;;;4.07;2.30;;;16.40;95.30;;;;;;5009957;28;20486;-65
2022/08/03 03:31:32;;;;;;;3.57;2.57;;;16.50;95.50;;;;;;5001081;28;20493;-66
2022/08/03 03:33:59;;;;;;;10.80;2.17;;;16.50;95.40;;;;;;5011114;28;20964;-66
2022/08/03 03:36:27;;;;;;;5.20;1.93;;;16.50;95.20;;;;;;4993708;28;20436;-66
2022/08/03 03:38:54;;;;;;;2.63;1.60;;;16.60;95.10;;;;;;4993515;28;20487;-66
2022/08/03 03:41:22;;;;;;;4.10;2.23;;;16.60;94.90;;;;;;5006854;28;20443;-65
2022/08/03 03:43:51;;;;;;;2.33;1.73;;;16.60;94.60;;;;;;4996758;28;20457;-66
2022/08/03 03:46:19;;;;;;;2.40;1.40;;;16.60;94.80;;;;;;5012752;28;20516;-66
2022/08/03 03:48:46;;;;;;;2.73;1.90;;;16.60;94.30;;;;;;5010465;28;20438;-68
2022/08/03 03:51:13;;;;;;;3.03;2.00;;;16.50;94.00;;;;;;4993571;28;20450;-67
2022/08/03 03:53:41;;;;;;;3.13;1.87;;;16.40;94.70;;;;;;4993553;28;21032;-67
2022/08/03 03:56:08;;;;;;;4.00;2.00;;;16.30;94.80;;;;;;4993135;28;20479;-73
2022/08/03 03:58:35;;;;;;;2.97;1.70;;;16.30;94.80;;;;;;4993246;28;20827;-67
2022/08/03 04:01:03;;;;;;;3.27;1.70;;;16.30;95.10;;;;;;4993508;28;20452;-68
2022/08/03 04:03:31;;;;;;;2.50;1.63;;;16.30;95.10;;;;;;5011604;28;20529;-68
2022/08/03 04:11:32;;;;;;;4.00;2.07;;;16.20;95.70;;;;;;4997849;28;20434;-67
2022/08/03 04:14:03;;;;;;;4.30;2.20;;;16.20;95.60;;;;;;5013408;28;20446;-68
2022/08/03 04:16:37;;;;;;;3.70;1.97;;;16.30;95.70;;;;;;5006337;28;20448;-68
2022/08/03 04:19:08;;;;;;;3.40;2.50;;;16.40;95.80;;;;;;5013113;28;20518;-67
2022/08/03 04:21:38;;;;;;;3.67;2.30;;;16.50;96.10;;;;;;5006543;28;20757;-67
2022/08/03 04:24:09;;;;;;;3.40;2.30;;;16.50;96.00;;;;;;4993159;28;20438;-67
2022/08/03 04:26:40;;;;;;;5.10;2.37;;;16.50;95.90;;;;;;4998958;28;20471;-67
2022/08/03 04:29:09;;;;;;;2.73;1.53;;;16.40;95.50;;;;;;4994030;28;20454;-67
2022/08/03 04:31:39;;;;;;;2.57;1.43;;;16.50;95.20;;;;;;4993430;28;20450;-67
2022/08/03 04:34:15;;;;;;;2.83;2.00;;;16.40;95.10;;;;;;4978750;28;21266;-75
2022/08/03 04:36:49;;;;;;;3.23;1.63;;;16.40;95.50;;;;;;4992949;28;20501;-67
2022/08/03 04:39:23;;;;;;;3.70;1.93;;;16.40;95.70;;;;;;4996094;28;20490;-67
2022/08/03 04:41:52;;;;;;;3.17;1.83;;;16.40;95.90;;;;;;5011040;28;20446;-67
2022/08/03 04:44:23;;;;;;;3.90;2.20;;;16.40;96.20;;;;;;4991468;28;20835;-67
2022/08/03 04:46:53;;;;;;;3.73;2.20;;;16.30;96.60;;;;;;5009909;28;20470;-68
2022/08/03 04:49:21;;;;;;;2.90;1.80;;;16.40;96.90;;;;;;5010610;28;20785;-68
2022/08/03 04:51:49;;;;;;;2.90;2.07;;;16.40;97.00;;;;;;5008948;28;20443;-67
2022/08/03 04:54:17;;;;;;;4.13;2.70;;;16.40;97.00;;;;;;5010938;28;20443;-67
2022/08/03 04:56:44;;;;;;;4.07;2.33;;;16.40;97.10;;;;;;4999899;28;20875;-67
2022/08/03 04:59:12;;;;;;;4.70;2.20;;;16.40;97.30;;;;;;5009286;28;21291;-68
2022/08/03 05:01:40;;;;;;;3.53;2.40;;;16.50;97.50;;;;;;5009620;28;20756;-67
2022/08/03 05:04:09;;;;;;;3.10;2.37;;;16.50;97.70;;;;;;5007826;28;20447;-67
2022/08/03 05:06:36;;;;;;;4.00;2.73;;;16.60;97.80;;;;;;5014447;28;20815;-67
2022/08/03 05:09:04;;;;;;;3.60;2.17;;;16.70;97.80;;;;;;5013697;28;20442;-67
2022/08/03 05:11:32;;;;;;;2.63;1.90;;;16.70;97.80;;;;;;5009894;28;20439;-69
2022/08/03 05:13:59;;;;;;;4.40;3.13;;;16.80;97.80;;;;;;5015067;28;20438;-68
2022/08/03 05:16:26;;;;;;;3.97;2.27;;;16.90;97.80;;;;;;5014659;28;20525;-71
2022/08/03 05:18:53;;;;;;;6.80;3.00;;;17.00;97.60;;;;;;5014159;28;20552;-67
2022/08/03 05:21:22;;;;;;;3.87;2.90;;;17.10;97.30;;;;;;5014505;28;20501;-66
2022/08/03 05:23:49;;;;;;;6.63;2.80;;;17.10;97.40;;;;;;5007554;28;20439;-68
2022/08/03 05:26:16;;;;;;;3.50;2.50;;;17.10;97.40;;;;;;5008132;28;20447;-67
2022/08/03 05:28:43;;;;;;;7.00;2.70;;;17.20;97.50;;;;;;5014971;28;21613;-67
2022/08/03 05:31:19;;;;;;;4.33;2.80;;;17.30;97.60;;;;;;5013439;28;20457;-68
2022/08/03 05:33:47;;;;;;;4.23;3.17;;;17.50;98.00;;;;;;5014309;28;20441;-68
2022/08/03 05:36:14;;;;;;;5.20;3.00;;;17.60;98.60;;;;;;5000124;28;21613;-68
2022/08/03 05:38:43;;;;;;;3.57;2.83;;;17.70;98.60;;;;;;5013591;28;20536;-68
2022/08/03 05:41:10;;;;;;;4.23;3.17;;;17.80;98.50;;;;;;5014757;28;20868;-67
2022/08/03 05:43:39;;;;;;;3.53;2.50;;;18.00;98.30;;;;;;5014280;28;20473;-67
2022/08/03 05:46:06;;;;;;;4.13;3.00;;;18.00;97.90;;;;;;5014350;28;20465;-68
2022/08/03 05:48:34;;;;;;;4.17;2.23;;;18.20;97.90;;;;;;5014528;28;20489;-67
2022/08/03 05:51:00;;;;;;;3.90;2.60;;;18.30;97.70;;;;;;5014180;28;20497;-67
2022/08/03 05:53:27;;;;;;;3.50;2.33;;;18.40;97.60;;;;;;5014674;28;20545;-67
2022/08/03 05:55:57;;;;;;;2.93;2.20;;;18.50;97.20;;;;;;5003752;28;20530;-68
2022/08/03 05:58:24;;;;;;;3.27;1.87;;;18.50;97.20;;;;;;5013524;28;20482;-67
2022/08/03 06:00:51;;;;;;;3.87;2.80;;;18.70;97.40;;;;;;5014249;28;20945;-67
2022/08/03 06:03:18;;;;;;;3.43;2.40;;;18.70;96.90;;;;;;5009449;28;20477;-67
2022/08/03 06:05:45;;;;;;;4.57;2.70;;;18.80;97.30;;;;;;5013915;28;20439;-67
2022/08/03 06:08:13;;;;;;;5.03;2.30;;;18.90;97.70;;;;;;5013613;28;20941;-67
2022/08/03 06:10:39;;;;;;;4.53;2.27;;;18.90;97.70;;;;;;5013817;28;20984;-67
2022/08/03 06:13:08;;;;;;;3.03;2.20;;;19.00;97.60;;;;;;5001387;28;20518;-68
2022/08/03 06:15:35;;;;;;;3.63;2.60;;;19.10;98.20;;;;;;5010858;28;20486;-68
2022/08/03 06:18:02;;;;;;;9.17;2.40;;;19.20;98.40;;;;;;5007456;28;20966;-68
2022/08/03 06:20:29;;;;;;;3.53;2.60;;;19.40;98.40;;;;;;5011920;28;20495;-70
2022/08/03 06:22:56;;;;;;;5.33;2.33;;;19.50;98.40;;;;;;5012937;28;20435;-69
2022/08/03 06:25:24;;;;;;;5.17;2.47;;;19.70;98.30;;;;;;5009296;28;20462;-69
2022/08/03 06:27:51;;;;;;;4.17;2.40;;;19.80;98.00;;;;;;5014106;28;20812;-68
2022/08/03 06:30:20;;;;;;;6.43;2.70;;;19.90;97.50;;;;;;5014106;28;20963;-68
2022/08/03 06:32:46;;;;;;;4.50;1.90;;;20.10;97.30;;;;;;5009220;28;20442;-68
2022/08/03 06:35:14;;;;;;;3.97;2.50;;;20.20;96.80;;;;;;5011451;28;20442;-67
2022/08/03 06:37:48;;;;;;;3.40;2.27;;;20.30;96.50;;;;;;5008044;28;20433;-68
2022/08/03 06:40:17;;;;;;;3.30;1.87;;;20.40;96.50;;;;;;5008513;28;20429;-68
2022/08/03 06:42:44;;;;;;;3.10;1.90;;;20.60;96.10;;;;;;5013295;28;20484;-67
2022/08/03 06:45:12;;;;;;;7.10;2.13;;;20.70;96.30;;;;;;5014930;28;20512;-68
2022/08/03 06:47:41;;;;;;;4.07;2.73;;;20.80;95.40;;;;;;5015412;28;20505;-67
2022/08/03 06:50:09;;;;;;;6.30;2.60;;;20.90;94.90;;;;;;5015253;28;20862;-67
2022/08/03 06:52:36;;;;;;;4.33;2.20;;;21.00;94.70;;;;;;5015099;28;20455;-67
2022/08/03 06:55:04;;;;;;;4.53;2.73;;;21.20;94.30;;;;;;5015069;28;20533;-72
2022/08/03 06:57:31;;;;;;;4.20;2.40;;;21.30;93.90;;;;;;5015044;28;20537;-74
2022/08/03 07:00:00;;;;;;;3.97;2.10;;;21.40;93.40;;;;;;5014867;28;20577;-67
2022/08/03 07:02:27;;;;;;;3.60;2.60;;;21.50;93.60;;;;;;5015009;28;20532;-68
2022/08/03 07:04:56;;;;;;;3.80;2.30;;;21.70;93.00;;;;;;5014737;28;20943;-67
2022/08/03 07:07:23;;;;;;;3.40;2.23;;;21.80;93.00;;;;;;5014577;28;20914;-68
2022/08/03 07:09:50;;;;;;;3.37;1.90;;;21.90;92.90;;;;;;5014878;28;20438;-68
2022/08/03 07:12:17;;;;;;;3.70;2.37;;;22.00;93.00;;;;;;5014859;28;20834;-67
2022/08/03 07:14:44;;;;;;;3.47;2.13;;;22.20;93.00;;;;;;5014393;28;20482;-67
2022/08/03 07:17:11;;;;;;;3.70;1.90;;;22.30;92.50;;;;;;5014988;28;20863;-67
2022/08/03 07:19:38;;;;;;;5.90;2.03;;;22.40;92.30;;;;;;5013561;28;20482;-70
2022/08/03 07:22:07;;;;;;;3.37;2.23;;;22.60;92.20;;;;;;5014548;28;20439;-68
2022/08/03 07:24:34;;;;;;;7.87;2.10;;;22.70;91.70;;;;;;5014489;28;20525;-68
2022/08/03 07:27:01;;;;;;;3.87;2.17;;;22.80;91.30;;;;;;5014501;28;20478;-68
2022/08/03 07:29:28;;;;;;;3.30;1.90;;;22.90;91.30;;;;;;5014314;28;20528;-67
2022/08/03 07:31:55;;;;;;;4.77;2.40;;;23.00;91.40;;;;;;5021699;28;20866;-68
2022/08/03 07:34:22;;;;;;;3.13;1.83;;;23.10;91.10;;;;;;5022673;28;20464;-67
2022/08/03 07:36:49;;;;;;;7.30;2.20;;;23.20;91.30;;;;;;5021414;28;20533;-68
2022/08/03 07:39:17;;;;;;;4.33;1.60;;;23.30;90.60;;;;;;5020241;28;20578;-67
2022/08/03 07:41:44;;;;;;;4.60;2.20;;;23.40;89.50;;;;;;5021721;28;20442;-68
2022/08/03 07:44:11;;;;;;;3.73;2.00;;;23.50;89.60;;;;;;5022535;28;20489;-67
2022/08/03 07:46:38;;;;;;;4.00;2.27;;;23.60;89.10;;;;;;5019036;28;20558;-67
2022/08/03 07:49:06;;;;;;;5.37;2.10;;;23.80;89.50;;;;;;5024010;28;20992;-67
2022/08/03 07:51:32;;;;;;;5.17;1.80;;;23.90;89.80;;;;;;5020698;28;20493;-68
2022/08/03 07:54:00;;;;;;;4.53;2.23;;;24.10;90.10;;;;;;5021039;28;20925;-67
2022/08/03 07:56:28;;;;;;;4.60;1.80;;;24.20;88.40;;;;;;5021818;28;20449;-68
2022/08/03 07:58:55;;;;;;;11.77;2.20;;;24.30;88.60;;;;;;5023669;28;21233;-67
2022/08/03 08:01:23;;;;;;;5.60;1.80;;;24.40;85.90;;;;;;5022202;28;21000;-68
2022/08/03 08:03:50;;;;;;;6.87;2.37;;;24.50;86.40;;;;;;5022706;28;20611;-68
2022/08/03 08:06:18;;;;;;;6.60;2.10;;;24.60;85.20;;;;;;5019171;28;20530;-68
2022/08/03 08:08:45;;;;;;;6.47;2.20;;;24.80;85.90;;;;;;5019338;28;20451;-67
2022/08/03 08:11:12;;;;;;;10.90;2.63;;;24.90;84.90;;;;;;5011588;28;20481;-67
2022/08/03 08:13:40;;;;;;;5.23;2.23;;;25.00;83.70;;;;;;5011572;28;20969;-67
2022/08/03 08:16:07;;;;;;;5.33;2.00;;;25.20;81.30;;;;;;5018392;28;20451;-68
2022/08/03 08:18:34;;;;;;;5.97;1.90;;;25.30;81.60;;;;;;5018951;28;20570;-67
2022/08/03 08:21:02;;;;;;;2.30;1.63;;;25.40;80.00;;;;;;5023231;28;20780;-67
2022/08/03 08:23:29;;;;;;;4.33;2.23;;;25.50;78.30;;;;;;5021640;28;20452;-67
2022/08/03 08:25:56;;;;;;;6.30;2.50;;;25.70;78.80;;;;;;5022267;28;20832;-68
2022/08/03 08:28:23;;;;;;;3.90;2.03;;;25.70;77.10;;;;;;5022740;28;20483;-67
2022/08/03 08:30:52;;;;;;;6.87;1.80;;;25.80;76.70;;;;;;5026013;28;20437;-68
2022/08/03 08:33:18;;;;;;;8.33;1.97;;;25.90;76.20;;;;;;5032811;28;20944;-72
2022/08/03 08:35:45;;;;;;;5.03;2.30;;;26.10;76.50;;;;;;5033112;28;20842;-68
2022/08/03 08:38:12;;;;;;;4.10;1.60;;;26.20;75.40;;;;;;5032943;28;20847;-67
2022/08/03 08:40:39;;;;;;;3.53;1.90;;;26.30;76.30;;;;;;5033180;28;20521;-68
2022/08/03 08:43:07;;;;;;;4.73;1.83;;;26.40;75.50;;;;;;5033214;28;20528;-68
2022/08/03 08:45:35;;;;;;;3.37;1.63;;;26.60;76.90;;;;;;5032532;28;20484;-67
2022/08/03 08:48:05;;;;;;;3.50;1.87;;;26.70;82.70;;;;;;5033034;28;20484;-68
2022/08/03 08:50:32;;;;;;;2.30;1.50;;;26.90;88.30;;;;;;5032981;28;20569;-67
2022/08/03 08:53:07;;;;;;;5.70;2.30;;;26.90;89.20;;;;;;5032980;28;20913;-68
2022/08/03 08:55:35;;;;;;;2.27;1.30;;;27.10;84.90;;;;;;5033004;28;20440;-68
2022/08/03 08:58:05;;;;;;;5.50;2.03;;;27.10;81.40;;;;;;5033003;28;20511;-67
2022/08/03 09:00:32;;;;;;;3.77;2.07;;;27.10;82.80;;;;;;5032915;28;20478;-68
2022/08/03 09:03:00;;;;;;;2.57;1.73;;;27.20;83.40;;;;;;5032551;28;20510;-68
2022/08/03 09:05:31;;;;;;;2.83;2.00;;;27.40;82.90;;;;;;5032722;28;20446;-68
2022/08/03 09:07:59;;;;;;;3.40;1.77;;;27.40;81.50;;;;;;5032475;28;20437;-69
2022/08/03 09:10:25;;;;;;;3.40;1.70;;;27.60;81.60;;;;;;5032885;28;20500;-67
2022/08/03 09:12:53;;;;;;;2.67;1.80;;;27.70;80.90;;;;;;5032771;28;20465;-68
2022/08/03 09:15:22;;;;;;;2.80;1.77;;;27.80;76.90;;;;;;5032700;28;20465;-67
2022/08/03 09:17:53;;;;;;;2.57;1.40;;;27.90;76.60;;;;;;5032751;28;20444;-66
2022/08/03 09:20:21;;;;;;;2.87;1.80;;;28.20;75.90;;;;;;5032781;28;20988;-66
2022/08/03 09:22:55;;;;;;;2.80;1.73;;;28.20;71.60;;;;;;5032532;28;20963;-66
2022/08/03 09:25:31;;;;;;;2.20;1.60;;;28.30;73.30;;;;;;5032469;28;20485;-67
2022/08/03 09:28:08;;;;;;;5.10;2.20;;;28.40;69.40;;;;;;5032575;28;20441;-67
2022/08/03 09:30:36;;;;;;;3.13;1.90;;;28.50;72.20;;;;;;5032791;28;20445;-67
2022/08/03 09:33:05;;;;;;;3.90;1.90;;;28.60;71.80;;;;;;5032376;28;20480;-66
2022/08/03 09:35:32;;;;;;;3.13;1.87;;;28.80;71.90;;;;;;5032517;28;20437;-67
2022/08/03 09:38:18;;;;;;;4.60;1.60;;;28.90;70.90;;;;;;5032630;28;20473;-67
2022/08/03 09:40:46;;;;;;;7.33;1.47;;;29.00;71.10;;;;;;5032442;28;20493;-66
2022/08/03 09:43:13;;;;;;;2.63;1.53;;;29.10;71.40;;;;;;5033741;28;20536;-67
2022/08/03 09:45:41;;;;;;;5.70;1.53;;;29.30;70.10;;;;;;5036177;28;20524;-66
2022/08/03 09:48:28;;;;;;;2.60;1.40;;;29.40;69.00;;;;;;5036014;28;20449;-66
2022/08/03 09:50:56;;;;;;;4.87;1.67;;;29.50;66.50;;;;;;5035898;28;20928;-67
2022/08/03 09:53:25;;;;;;;2.57;1.53;;;29.60;66.50;;;;;;5035748;28;20477;-67
2022/08/03 09:55:54;;;;;;;3.20;1.40;;;29.70;65.90;;;;;;5035966;28;20484;-66
2022/08/03 09:58:21;;;;;;;5.60;1.23;;;29.80;68.40;;;;;;5036061;28;20945;-67
2022/08/03 10:00:59;;;;;;;5.50;1.30;;;29.90;60.70;;;;;;5035800;28;21003;-66
2022/08/03 10:03:28;;;;;;;2.10;1.30;;;29.90;63.00;;;;;;5033749;28;20426;-67
2022/08/03 10:05:55;;;;;;;4.47;1.20;;;30.00;60.30;;;;;;5012157;28;20484;-67
2022/08/03 10:08:26;;;;;;;2.03;1.30;;;30.10;59.70;;;;;;5015989;28;20474;-67
2022/08/03 10:10:53;;;;;;;2.87;1.20;;;30.20;60.70;;;;;;5016323;28;20443;-66
2022/08/03 10:13:23;;;;;;;2.50;1.30;;;30.20;60.10;;;;;;5012696;28;20510;-66
2022/08/03 10:15:50;;;;;;;2.27;0.90;;;30.30;59.20;;;;;;4996392;28;20427;-66
2022/08/03 10:18:17;;;;;;;3.40;1.20;;;30.40;59.80;;;;;;5002987;28;20435;-66
2022/08/03 10:20:48;;;;;;;5.73;1.40;;;30.50;59.40;;;;;;5015558;28;20569;-66
2022/08/03 10:23:17;;;;;;;3.20;1.13;;;30.60;58.40;;;;;;5008907;28;20471;-66
2022/08/03 10:25:47;;;;;;;3.47;1.53;;;30.70;57.60;;;;;;4996129;28;20448;-66
2022/08/03 10:28:17;;;;;;;3.00;1.40;;;30.70;56.60;;;;;;4998842;28;20490;-73
2022/08/03 10:30:49;;;;;;;2.70;1.43;;;30.80;57.00;;;;;;4996912;28;20475;-67
2022/08/03 10:33:19;;;;;;;2.80;1.70;;;30.90;53.90;;;;;;4996189;28;20960;-66
2022/08/03 10:35:51;;;;;;;2.23;1.33;;;30.90;54.60;;;;;;4994274;28;20485;-67
2022/08/03 10:38:25;;;;;;;2.30;1.47;;;31.00;53.50;;;;;;5012484;28;20449;-66
2022/08/03 10:40:56;;;;;;;6.43;2.00;;;31.00;53.30;;;;;;5017756;28;20878;-68
2022/08/03 10:43:28;;;;;;;2.40;1.33;;;31.10;54.80;;;;;;5012651;28;20512;-66
2022/08/03 10:45:56;;;;;;;2.70;1.30;;;31.20;56.00;;;;;;5021933;28;20509;-67
2022/08/03 10:48:24;;;;;;;2.17;1.33;;;31.30;56.00;;;;;;5017821;28;20484;-67
2022/08/03 10:50:56;;;;;;;2.20;1.40;;;31.40;55.70;;;;;;5015780;28;20439;-66
2022/08/03 10:53:39;;;;;;;10.10;1.67;;;31.50;54.60;;;;;;5015324;28;20868;-66
2022/08/03 11:00:07;;;;;;;2.80;1.23;;;31.70;51.90;;;;;;5015152;28;20821;-66
2022/08/03 11:03:09;;;;;;;2.13;1.20;;;31.60;49.30;;;;;;5009619;28;20438;-67
2022/08/03 11:05:41;;;;;;;4.23;1.80;;;31.60;51.00;;;;;;5014836;28;20438;-66
2022/08/03 11:08:33;;;;;;;2.60;1.60;;;31.70;46.00;;;;;;5014827;28;20883;-66
2022/08/03 11:11:28;;;;;;;2.67;1.40;;;31.60;47.60;;;;;;5015049;28;20445;-67
2022/08/03 11:14:01;;;;;;;2.33;1.10;;;31.60;48.20;;;;;;5014716;28;20438;-67
2022/08/03 11:16:40;;;;;;;2.97;1.50;;;31.60;50.00;;;;;;5014512;28;20438;-67
2022/08/03 11:19:21;;;;;;;2.63;1.50;;;31.60;47.20;;;;;;5014604;28;20493;-67
2022/08/03 11:21:59;;;;;;;2.70;1.70;;;31.70;47.70;;;;;;5014507;28;20449;-66
2022/08/03 11:24:58;;;;;;;4.00;1.60;;;31.70;47.60;;;;;;5014230;28;20438;-69
2022/08/03 11:27:27;;;;;;;2.47;1.40;;;31.70;48.90;;;;;;5014283;28;20435;-67
2022/08/03 11:30:00;;;;;;;4.47;1.60;;;31.80;50.60;;;;;;5014477;28;20477;-67
2022/08/03 11:32:57;;;;;;;4.33;1.37;;;31.90;51.50;;;;;;5014485;28;20517;-66
2022/08/03 11:35:28;;;;;;;3.93;1.80;;;32.00;50.60;;;;;;5014163;28;20470;-67
2022/08/03 11:38:03;;;;;;;4.13;1.80;;;32.20;51.30;;;;;;5014415;28;20442;-67
2022/08/03 11:40:36;;;;;;;3.10;1.50;;;32.20;49.70;;;;;;5014087;28;20482;-68
2022/08/03 11:43:07;;;;;;;2.57;1.77;;;32.30;48.80;;;;;;5013893;28;20537;-66
2022/08/03 11:45:36;;;;;;;3.13;1.33;;;32.30;43.00;;;;;;5014029;28;20467;-66
2022/08/03 11:48:18;;;;;;;3.20;1.63;;;32.40;42.00;;;;;;5013811;28;20529;-66
2022/08/03 11:50:50;;;;;;;2.30;1.30;;;32.40;42.90;;;;;;5013353;28;20447;-68
2022/08/03 11:53:23;;;;;;;6.57;1.60;;;32.40;44.80;;;;;;5013691;28;20482;-66
2022/08/03 11:55:52;;;;;;;3.00;2.00;;;32.50;45.50;;;;;;5014146;28;20488;-66
2022/08/03 11:58:22;;;;;;;2.10;1.30;;;32.40;43.40;;;;;;5014139;28;20447;-66
2022/08/03 12:00:49;;;;;;;2.30;1.47;;;32.50;48.60;;;;;;5013579;28;20992;-67
2022/08/03 12:03:21;;;;;;;2.10;1.30;;;32.60;47.80;;;;;;5013897;28;20482;-67
2022/08/03 12:05:50;;;;;;;2.40;1.30;;;32.60;47.60;;;;;;5013400;28;20535;-67
2022/08/03 12:08:32;;;;;;;4.43;1.67;;;32.60;46.50;;;;;;5013604;28;20466;-68
2022/08/03 12:11:01;;;;;;;3.10;1.63;;;32.70;47.40;;;;;;5012739;28;20482;-66
2022/08/03 12:13:42;;;;;;;2.13;1.30;;;32.70;44.10;;;;;;5013646;28;20442;-67
2022/08/03 12:16:09;;;;;;;2.97;1.57;;;32.80;44.40;;;;;;5013751;28;20529;-66
2022/08/03 12:18:36;;;;;;;2.90;1.33;;;32.80;45.40;;;;;;5013088;28;20493;-66
2022/08/03 12:21:06;;;;;;;2.20;1.40;;;32.90;44.30;;;;;;5013044;28;21090;-66
2022/08/03 12:23:34;;;;;;;2.57;1.30;;;32.80;44.90;;;;;;5013271;28;20441;-67
2022/08/03 12:26:05;;;;;;;2.20;1.10;;;32.80;44.10;;;;;;5013556;28;20439;-67
2022/08/03 12:28:33;;;;;;;2.13;1.17;;;32.80;43.40;;;;;;5013497;28;20493;-66
2022/08/03 12:31:06;;;;;;;3.03;1.63;;;32.90;44.20;;;;;;5013129;28;20447;-67
2022/08/03 12:33:54;;;;;;;2.60;1.40;;;32.80;43.60;;;;;;5013564;28;20439;-67
2022/08/03 12:36:23;;;;;;;2.57;1.37;;;32.90;43.60;;;;;;5013909;28;20453;-66
2022/08/03 12:38:58;;;;;;;2.20;1.20;;;32.90;42.40;;;;;;5013394;28;20438;-66
2022/08/03 12:41:30;;;;;;;2.27;1.10;;;32.90;42.20;;;;;;5013487;28;20540;-67
2022/08/03 12:43:57;;;;;;;2.40;1.30;;;33.00;41.00;;;;;;5013293;28;20447;-67
2022/08/03 12:46:31;;;;;;;2.80;1.37;;;33.00;41.50;;;;;;5013376;28;20569;-68
2022/08/03 12:49:06;;;;;;;2.30;1.30;;;33.00;42.00;;;;;;5013200;28;20434;-66
2022/08/03 12:51:37;;;;;;;4.00;1.10;;;32.90;40.60;;;;;;5013044;28;20473;-67
2022/08/03 12:54:05;;;;;;;3.33;1.20;;;32.90;41.30;;;;;;5012961;28;20442;-67
2022/08/03 12:56:35;;;;;;;2.30;1.30;;;32.90;42.50;;;;;;5013268;28;20505;-66
2022/08/03 12:59:18;;;;;;;2.20;1.37;;;32.90;43.40;;;;;;5012925;28;20458;-67
2022/08/03 13:01:47;;;;;;;2.53;1.23;;;32.90;43.90;;;;;;5013350;28;20518;-66
2022/08/03 13:04:26;;;;;;;3.27;1.30;;;33.00;43.70;;;;;;5013127;28;20470;-67
2022/08/03 13:06:59;;;;;;;2.40;1.57;;;32.90;42.30;;;;;;5013107;28;20449;-66
2022/08/03 13:09:27;;;;;;;2.40;1.40;;;32.90;41.10;;;;;;5012702;28;20466;-68